createdAt,value
2024-03-12T00:00:45.743Z,4.95
2024-03-12T00:03:13.860Z,4.45
2024-03-12T00:05:42.727Z,5.38
2024-03-12T00:08:10.764Z,5.03
2024-03-12T00:10:40.305Z,5.38
2024-03-12T00:13:08.991Z,5.20
2024-03-12T00:15:38.341Z,5.30
2024-03-12T00:18:07.290Z,4.88
2024-03-12T00:20:36.657Z,5.60
2024-03-12T00:23:08.482Z,5.28
2024-03-12T00:25:37.249Z,5.28
2024-03-12T00:30:46.472Z,5.20
2024-03-12T00:33:14.962Z,5.30
2024-03-12T00:35:45.139Z,4.60
2024-03-12T00:40:44.361Z,4.22
2024-03-12T00:43:13.869Z,4.72
2024-03-12T00:45:43.629Z,4.82
2024-03-12T00:48:20.550Z,4.78
2024-03-12T00:50:50.447Z,5.10
2024-03-12T00:53:19.413Z,4.55
2024-03-12T00:55:50.863Z,4.65
2024-03-12T00:58:22.396Z,4.80
2024-03-12T01:00:51.290Z,3.92
2024-03-12T01:03:19.547Z,5.20
2024-03-12T01:05:48.113Z,3.67
2024-03-12T01:08:16.516Z,4.00
2024-03-12T01:10:44.650Z,3.80
2024-03-12T01:13:13.059Z,3.90
2024-03-12T01:15:41.888Z,3.85
2024-03-12T01:18:14.472Z,3.90
2024-03-12T01:20:42.558Z,4.05
2024-03-12T01:23:10.724Z,4.45
2024-03-12T01:25:39.004Z,4.00
2024-03-12T01:30:39.786Z,4.30
2024-03-12T01:33:08.314Z,4.47
2024-03-12T01:35:41.305Z,4.93
2024-03-12T01:40:53.528Z,4.97
2024-03-12T01:43:21.647Z,5.63
2024-03-12T01:45:49.721Z,5.60
2024-03-12T01:48:17.981Z,5.45
2024-03-12T01:50:46.306Z,5.05
2024-03-12T01:53:14.878Z,5.30
2024-03-12T01:55:45.467Z,5.72
2024-03-12T01:58:19.058Z,5.50
2024-03-12T02:00:47.926Z,5.75
2024-03-12T02:03:20.725Z,7.13
2024-03-12T02:05:49.052Z,5.25
2024-03-12T02:08:18.862Z,4.78
2024-03-12T02:10:47.640Z,5.13
2024-03-12T02:13:15.816Z,4.75
2024-03-12T02:15:43.953Z,4.90
2024-03-12T02:18:12.075Z,5.38
2024-03-12T02:20:40.129Z,5.22
2024-03-12T02:23:08.208Z,5.72
2024-03-12T02:25:36.109Z,4.90
2024-03-12T02:28:04.722Z,4.93
2024-03-12T02:30:33.141Z,4.95
2024-03-12T02:33:01.661Z,5.00
2024-03-12T02:35:29.964Z,4.65
2024-03-12T02:37:57.980Z,5.13
2024-03-12T02:40:26.042Z,4.80
2024-03-12T02:42:54.204Z,4.68
2024-03-12T02:45:23.156Z,4.40
2024-03-12T02:47:51.889Z,4.57
2024-03-12T02:50:20.139Z,4.30
2024-03-12T02:52:48.324Z,4.30
2024-03-12T02:55:16.657Z,4.63
2024-03-12T02:57:45.294Z,4.30
2024-03-12T03:00:15.810Z,4.22
2024-03-12T03:02:45.687Z,4.45
2024-03-12T03:05:15.037Z,3.83
2024-03-12T03:07:44.177Z,4.00
2024-03-12T03:10:14.442Z,4.78
2024-03-12T03:12:45.518Z,3.92
2024-03-12T03:15:14.688Z,4.03
2024-03-12T03:17:47.831Z,3.92
2024-03-12T03:20:16.946Z,3.47
2024-03-12T03:22:45.768Z,3.97
2024-03-12T03:25:14.768Z,4.22
2024-03-12T03:27:44.138Z,4.45
2024-03-12T03:30:20.459Z,4.00
2024-03-12T03:35:21.482Z,3.92
2024-03-12T03:37:49.692Z,3.45
2024-03-12T03:40:24.929Z,4.53
2024-03-12T03:42:55.090Z,4.20
2024-03-12T03:45:23.166Z,4.40
2024-03-12T03:47:52.243Z,4.60
2024-03-12T03:50:20.372Z,4.25
2024-03-12T03:52:49.744Z,4.30
2024-03-12T03:55:17.988Z,4.18
2024-03-12T04:00:25.168Z,3.60
2024-03-12T04:02:53.501Z,4.68
2024-03-12T04:05:21.696Z,4.45
2024-03-12T04:07:50.828Z,5.03
2024-03-12T04:10:19.605Z,4.97
2024-03-12T04:12:50.321Z,4.30
2024-03-12T04:15:18.678Z,4.75
2024-03-12T04:17:46.700Z,4.70
2024-03-12T04:20:18.781Z,4.35
2024-03-12T04:22:47.183Z,5.28
2024-03-12T04:27:50.199Z,5.07
2024-03-12T04:30:18.530Z,5.18
2024-03-12T04:32:49.013Z,5.32
2024-03-12T04:35:17.903Z,5.05
2024-03-12T04:37:46.379Z,5.50
2024-03-12T04:40:14.831Z,4.60
2024-03-12T04:45:17.637Z,5.65
2024-03-12T04:47:46.504Z,4.97
2024-03-12T04:50:17.075Z,5.03
2024-03-12T04:52:45.171Z,4.82
2024-03-12T04:55:15.292Z,5.13
2024-03-12T04:57:44.790Z,5.03
2024-03-12T05:02:49.597Z,4.88
2024-03-12T05:05:25.458Z,4.85
2024-03-12T05:07:54.567Z,4.82
2024-03-12T05:10:23.187Z,4.90
2024-03-12T05:12:53.513Z,4.60
2024-03-12T05:17:55.302Z,4.55
2024-03-12T05:20:35.142Z,4.55
2024-03-12T05:23:05.744Z,4.60
2024-03-12T05:25:41.612Z,4.53
2024-03-12T05:28:11.807Z,4.78
2024-03-12T05:33:16.673Z,4.20
2024-03-12T05:35:53.285Z,5.47
2024-03-12T05:38:35.608Z,4.57
2024-03-12T05:41:10.318Z,4.55
2024-03-12T05:43:57.621Z,5.43
2024-03-12T05:46:49.078Z,4.63
2024-03-12T05:49:17.377Z,4.70
2024-03-12T05:51:45.905Z,5.10
2024-03-12T05:54:14.039Z,5.00
2024-03-12T05:56:42.161Z,4.82
2024-03-12T05:59:10.338Z,4.80
2024-03-12T06:01:38.740Z,4.55
2024-03-12T06:04:06.986Z,4.90
2024-03-12T06:06:35.263Z,4.95
2024-03-12T06:09:04.064Z,4.72
2024-03-12T06:11:33.354Z,4.82
2024-03-12T06:14:04.187Z,4.93
2024-03-12T06:16:32.873Z,4.72
2024-03-12T06:19:01.689Z,4.60
2024-03-12T06:21:30.818Z,5.32
2024-03-12T06:23:58.872Z,5.05
2024-03-12T06:26:28.147Z,4.90
2024-03-12T06:28:56.732Z,5.15
2024-03-12T06:31:25.915Z,5.28
2024-03-12T06:33:54.126Z,4.65
2024-03-12T06:36:22.498Z,4.90
2024-03-12T06:38:53.249Z,4.88
2024-03-12T06:41:21.430Z,4.75
2024-03-12T06:43:49.482Z,5.03
2024-03-12T06:46:21.617Z,4.80
2024-03-12T06:48:50.356Z,5.15
2024-03-12T06:51:18.666Z,4.70
2024-03-12T06:53:47.323Z,4.35
2024-03-12T06:56:18.179Z,5.05
2024-03-12T06:58:47.422Z,4.40
2024-03-12T07:01:15.949Z,5.40
2024-03-12T07:03:44.989Z,5.00
2024-03-12T07:06:13.327Z,4.60
2024-03-12T07:08:41.909Z,4.97
2024-03-12T07:13:42.209Z,5.05
2024-03-12T07:16:12.252Z,4.85
2024-03-12T07:18:40.684Z,5.45
2024-03-12T07:21:08.932Z,5.80
2024-03-12T07:23:39.043Z,5.47
2024-03-12T07:26:07.365Z,5.07
2024-03-12T07:28:35.735Z,6.18
2024-03-12T07:31:05.120Z,6.00
2024-03-12T07:33:33.660Z,5.45
2024-03-12T07:36:05.951Z,5.93
2024-03-12T07:38:34.587Z,5.78
2024-03-12T07:41:02.809Z,5.75
2024-03-12T07:43:31.857Z,5.32
2024-03-12T07:45:59.894Z,4.82
2024-03-12T07:48:28.177Z,5.15
2024-03-12T07:51:02.792Z,5.43
2024-03-12T07:53:31.674Z,5.90
2024-03-12T07:56:02.751Z,4.68
2024-03-12T07:58:31.163Z,5.35
2024-03-12T08:01:01.008Z,4.65
2024-03-12T08:03:29.872Z,4.80
2024-03-12T08:05:58.156Z,5.22
2024-03-12T08:08:26.178Z,4.95
2024-03-12T08:10:56.468Z,5.60
2024-03-12T08:13:24.762Z,6.78
2024-03-12T08:15:53.234Z,6.28
2024-03-12T08:18:22.169Z,5.15
2024-03-12T08:20:50.348Z,10.98
2024-03-12T08:23:21.561Z,6.60
2024-03-12T08:25:56.138Z,6.38
2024-03-12T08:28:29.993Z,7.07
2024-03-12T08:31:02.528Z,6.65
2024-03-12T08:33:36.487Z,5.47
2024-03-12T08:36:05.214Z,5.38
2024-03-12T08:38:33.493Z,5.43
2024-03-12T08:41:01.894Z,4.72
2024-03-12T08:43:30.247Z,4.60
2024-03-12T08:46:00.023Z,6.82
2024-03-12T08:48:28.422Z,4.55
2024-03-12T08:50:58.277Z,5.20
2024-03-12T08:53:26.716Z,4.43
2024-03-12T08:55:54.817Z,5.20
2024-03-12T08:58:23.578Z,5.15
2024-03-12T09:00:52.444Z,4.82
2024-03-12T09:03:21.577Z,5.32
2024-03-12T09:05:49.945Z,4.82
2024-03-12T09:08:19.469Z,5.50
2024-03-12T09:10:49.512Z,4.82
2024-03-12T09:13:18.472Z,5.50
2024-03-12T09:15:46.721Z,5.85
2024-03-12T09:18:16.820Z,5.13
2024-03-12T09:20:44.849Z,4.85
2024-03-12T09:23:12.852Z,4.75
2024-03-12T09:25:43.848Z,3.80
2024-03-12T09:28:12.925Z,4.45
2024-03-12T09:30:41.201Z,3.00
2024-03-12T09:33:09.303Z,2.72
2024-03-12T09:38:12.607Z,3.40
2024-03-12T09:40:44.351Z,2.80
2024-03-12T09:43:15.434Z,2.92
2024-03-12T09:45:43.886Z,3.38
2024-03-12T09:48:14.854Z,3.30
2024-03-12T09:50:46.453Z,3.63
2024-03-12T09:53:16.639Z,3.60
2024-03-12T09:55:46.793Z,3.65
2024-03-12T09:58:14.968Z,3.38
2024-03-12T10:03:21.903Z,3.20
2024-03-12T10:05:50.174Z,2.90
2024-03-12T10:08:19.574Z,3.17
2024-03-12T10:10:49.931Z,3.08
2024-03-12T10:13:19.535Z,2.45
2024-03-12T10:16:01.389Z,2.45
2024-03-12T10:18:36.670Z,2.03
2024-03-12T10:21:05.653Z,2.70
2024-03-12T10:23:38.763Z,2.97
2024-03-12T10:26:11.318Z,2.53
2024-03-12T10:28:42.061Z,2.60
2024-03-12T10:31:13.068Z,2.40
2024-03-12T10:33:50.941Z,2.50
2024-03-12T10:36:34.179Z,5.63
2024-03-12T10:39:08.861Z,2.50
2024-03-12T10:41:36.988Z,2.50
2024-03-12T10:44:12.761Z,2.38
2024-03-12T10:46:48.911Z,8.57
2024-03-12T10:49:19.635Z,3.72
2024-03-12T10:51:48.029Z,2.42
2024-03-12T10:54:18.633Z,2.72
2024-03-12T10:56:50.919Z,2.50
2024-03-12T10:59:21.926Z,2.80
2024-03-12T11:01:51.163Z,2.20
2024-03-12T11:04:19.998Z,2.20
2024-03-12T11:06:51.036Z,2.53
2024-03-12T11:11:54.258Z,2.90
2024-03-12T11:14:22.986Z,2.20
2024-03-12T11:16:51.421Z,2.70
2024-03-12T11:19:25.165Z,2.90
2024-03-12T11:24:44.769Z,3.42
2024-03-12T11:27:23.402Z,2.83
2024-03-12T11:30:10.899Z,2.63
2024-03-12T11:32:44.930Z,2.95
2024-03-12T11:35:19.199Z,3.42
2024-03-12T11:38:07.113Z,3.50
2024-03-12T11:40:49.120Z,3.00
2024-03-12T11:43:39.850Z,6.05
2024-03-12T11:46:10.393Z,3.40
2024-03-12T11:48:47.140Z,5.47
2024-03-12T11:51:15.877Z,4.88
2024-03-12T11:53:49.470Z,3.55
2024-03-12T12:01:38.194Z,3.80
2024-03-12T12:04:09.726Z,3.75
2024-03-12T12:06:38.399Z,3.53
2024-03-12T12:09:10.890Z,3.17
2024-03-12T12:14:15.121Z,2.72
2024-03-12T12:16:43.908Z,2.83
2024-03-12T12:19:18.937Z,2.83
2024-03-12T12:21:51.880Z,3.22
2024-03-12T12:24:20.061Z,3.65
2024-03-12T12:26:49.175Z,3.38
2024-03-12T12:29:18.566Z,3.00
2024-03-12T12:34:30.252Z,3.25
2024-03-12T12:39:43.891Z,2.75
2024-03-12T12:42:20.360Z,2.85
2024-03-12T12:44:55.794Z,2.92
2024-03-12T12:47:24.832Z,2.58
2024-03-12T12:49:55.626Z,2.00
2024-03-12T12:52:25.333Z,2.20
2024-03-12T12:55:00.579Z,2.20
2024-03-12T12:57:36.727Z,3.05
2024-03-12T13:00:19.356Z,2.65
2024-03-12T13:05:29.755Z,2.78
2024-03-12T13:10:38.908Z,5.25
2024-03-12T13:13:06.992Z,0.95
2024-03-12T13:15:36.261Z,2.95
2024-03-12T13:18:06.539Z,3.50
2024-03-12T13:20:35.412Z,3.00
2024-03-12T13:23:04.569Z,2.67
2024-03-12T13:25:36.812Z,4.00
2024-03-12T13:28:05.593Z,3.72
2024-03-12T13:33:17.090Z,3.03
2024-03-12T13:35:46.246Z,3.20
2024-03-12T13:38:17.309Z,3.10
2024-03-12T13:40:46.837Z,2.50
2024-03-12T13:43:15.668Z,3.83
2024-03-12T13:45:44.339Z,3.22
2024-03-12T13:48:13.753Z,3.10
2024-03-12T13:50:43.636Z,4.10
2024-03-12T13:53:12.816Z,2.83
2024-03-12T13:55:41.584Z,4.07
2024-03-12T13:58:10.511Z,3.90
2024-03-12T14:00:39.708Z,3.58
2024-03-12T14:05:46.135Z,3.40
2024-03-12T14:08:18.621Z,3.80
2024-03-12T14:10:50.864Z,3.58
2024-03-12T14:13:21.423Z,4.03
2024-03-12T14:15:50.136Z,3.28
2024-03-12T14:18:23.071Z,3.30
2024-03-12T14:20:54.790Z,4.17
2024-03-12T14:23:23.594Z,3.58
2024-03-12T14:25:51.763Z,4.70
2024-03-12T14:30:51.933Z,3.95
2024-03-12T14:33:19.995Z,3.58
2024-03-12T14:35:49.124Z,3.85
2024-03-12T14:38:17.298Z,3.95
2024-03-12T14:40:45.444Z,3.80
2024-03-12T14:43:13.691Z,2.90
2024-03-12T14:45:43.202Z,3.33
2024-03-12T14:48:12.000Z,3.35
2024-03-12T14:50:40.575Z,3.10
2024-03-12T14:53:09.728Z,2.90
2024-03-12T14:58:10.001Z,3.03
2024-03-12T15:00:41.305Z,3.03
2024-03-12T15:03:09.923Z,2.70
2024-03-12T15:05:38.326Z,3.28
2024-03-12T15:10:39.164Z,4.32
2024-03-12T15:13:07.891Z,3.35
2024-03-12T15:15:37.234Z,3.00
2024-03-12T15:18:06.793Z,3.30
2024-03-12T15:20:35.298Z,3.55
2024-03-12T15:23:03.598Z,2.88
2024-03-12T15:25:33.383Z,3.28
2024-03-12T15:28:01.776Z,2.90
2024-03-12T15:33:05.339Z,4.05
2024-03-12T15:35:35.041Z,3.80
2024-03-12T15:38:06.889Z,3.58
2024-03-12T15:40:36.796Z,5.07
2024-03-12T15:43:07.462Z,3.20
2024-03-12T15:45:36.212Z,3.28
2024-03-12T15:48:09.670Z,3.83
2024-03-12T15:50:40.693Z,3.30
2024-03-12T15:53:09.705Z,4.00
2024-03-12T15:55:38.475Z,4.07
2024-03-12T16:00:41.146Z,3.90
2024-03-12T16:03:12.593Z,3.97
2024-03-12T16:05:43.334Z,4.00
2024-03-12T16:08:11.661Z,4.22
2024-03-12T16:13:12.166Z,3.53
2024-03-12T16:15:43.660Z,3.15
2024-03-12T16:18:12.863Z,4.25
2024-03-12T16:20:41.072Z,3.85
2024-03-12T16:23:09.053Z,2.90
2024-03-12T16:25:37.303Z,4.90
2024-03-12T16:28:07.012Z,4.65
2024-03-12T16:30:35.146Z,3.40
2024-03-12T16:33:03.445Z,4.05
2024-03-12T16:35:31.541Z,3.55
2024-03-12T16:37:59.680Z,4.03
2024-03-12T16:40:30.452Z,3.60
2024-03-12T16:42:58.805Z,3.58
2024-03-12T16:45:26.953Z,4.13
2024-03-12T16:47:55.137Z,4.63
2024-03-12T16:50:23.604Z,4.22
2024-03-12T16:52:51.716Z,4.68
2024-03-12T16:55:20.725Z,3.90
2024-03-12T16:57:49.651Z,4.10
2024-03-12T17:00:19.001Z,4.72
2024-03-12T17:02:47.626Z,4.95
2024-03-12T17:05:24.181Z,4.10
2024-03-12T17:07:55.403Z,3.85
2024-03-12T17:10:24.317Z,4.53
2024-03-12T17:12:53.961Z,4.10
2024-03-12T17:17:52.372Z,5.05
2024-03-12T17:20:20.708Z,4.00
2024-03-12T17:22:49.660Z,4.13
2024-03-12T17:25:21.177Z,4.20
2024-03-12T17:27:51.274Z,4.97
2024-03-12T17:32:49.865Z,5.70
2024-03-12T17:35:19.474Z,5.85
2024-03-12T17:37:54.742Z,5.18
2024-03-12T17:40:24.357Z,6.30
2024-03-12T17:42:53.339Z,7.07
2024-03-12T17:45:22.832Z,7.38
2024-03-12T17:47:54.285Z,6.63
2024-03-12T17:53:09.472Z,6.68
2024-03-12T17:55:38.373Z,8.45
2024-03-12T17:58:08.062Z,6.57
2024-03-12T18:00:37.551Z,7.60
2024-03-12T18:05:39.516Z,7.55
2024-03-12T18:08:20.517Z,8.25
2024-03-12T18:10:50.153Z,8.80
2024-03-12T18:15:47.766Z,8.63
2024-03-12T18:20:48.236Z,9.40
2024-03-12T18:25:58.513Z,9.65
2024-03-12T18:28:27.346Z,9.30
2024-03-12T18:30:55.761Z,9.40
2024-03-12T18:33:24.454Z,8.32
2024-03-12T18:38:26.885Z,10.65
2024-03-12T18:40:55.396Z,10.67
2024-03-12T18:43:24.444Z,11.35
2024-03-12T18:45:52.911Z,11.85
2024-03-12T18:48:22.140Z,11.50
2024-03-12T18:53:24.055Z,13.95
2024-03-12T18:55:54.176Z,10.75
2024-03-12T19:03:52.195Z,9.75
2024-03-12T19:06:26.319Z,10.73
2024-03-12T19:11:39.615Z,10.35
2024-03-12T19:16:55.168Z,10.63
2024-03-12T19:19:30.887Z,11.43
2024-03-12T19:22:00.421Z,11.63
2024-03-12T19:29:43.949Z,10.98
2024-03-12T19:34:50.023Z,10.27
2024-03-12T19:37:25.133Z,11.25
2024-03-12T19:42:33.871Z,10.35
2024-03-12T19:45:04.171Z,8.65
2024-03-12T19:47:33.596Z,10.25
2024-03-12T19:50:04.197Z,10.63
2024-03-12T19:52:34.207Z,10.32
2024-03-12T19:55:03.066Z,9.52
2024-03-12T19:57:33.604Z,11.85
2024-03-12T20:00:14.180Z,10.52
2024-03-12T20:02:44.578Z,12.85
2024-03-12T20:07:45.607Z,9.85
2024-03-12T20:10:15.507Z,16.52
2024-03-12T20:12:47.575Z,11.35
2024-03-12T20:15:15.920Z,11.27
2024-03-12T20:17:45.649Z,10.93
2024-03-12T20:22:55.255Z,9.90
2024-03-12T20:28:11.641Z,11.25
2024-03-12T20:30:41.144Z,11.73
2024-03-12T20:33:10.420Z,10.00
2024-03-12T20:35:44.887Z,10.57
2024-03-12T20:38:16.698Z,10.98
2024-03-12T20:43:26.687Z,11.20
2024-03-12T20:45:55.773Z,10.73
2024-03-12T20:53:41.181Z,12.10
2024-03-12T20:56:09.658Z,11.10
2024-03-12T20:58:38.006Z,11.05
2024-03-12T21:01:08.430Z,11.77
2024-03-12T21:03:39.392Z,11.82
2024-03-12T21:06:10.204Z,12.05
2024-03-12T21:08:38.887Z,8.80
2024-03-12T21:11:06.945Z,12.27
2024-03-12T21:13:36.620Z,11.82
2024-03-12T21:16:05.011Z,11.73
2024-03-12T21:18:33.201Z,10.57
2024-03-12T21:21:02.582Z,11.15
2024-03-12T21:23:30.653Z,11.80
2024-03-12T21:25:58.764Z,11.23
2024-03-12T21:28:26.955Z,11.30
2024-03-12T21:30:55.384Z,9.73
2024-03-12T21:33:23.479Z,12.45
2024-03-12T21:35:51.518Z,7.93
2024-03-12T21:38:19.702Z,11.40
2024-03-12T21:40:47.909Z,9.77
2024-03-12T21:43:16.172Z,11.65
2024-03-12T21:45:44.211Z,9.13
2024-03-12T21:48:14.095Z,12.73
2024-03-12T21:50:42.148Z,9.82
2024-03-12T21:53:10.198Z,9.75
2024-03-12T21:55:39.723Z,10.63
2024-03-12T21:58:09.493Z,8.35
2024-03-12T22:00:37.971Z,8.70
2024-03-12T22:03:06.253Z,10.88
2024-03-12T22:05:34.956Z,12.35
2024-03-12T22:08:02.996Z,10.63
2024-03-12T22:10:31.143Z,11.38
2024-03-12T22:12:59.805Z,11.32
2024-03-12T22:15:28.179Z,12.00
2024-03-12T22:17:58.061Z,8.65
2024-03-12T22:20:26.350Z,10.32
2024-03-12T22:22:55.743Z,11.05
2024-03-12T22:25:24.447Z,10.60
2024-03-12T22:27:52.683Z,10.07
2024-03-12T22:30:22.037Z,11.48
2024-03-12T22:32:50.397Z,9.93
2024-03-12T22:35:18.567Z,10.73
2024-03-12T22:37:49.658Z,10.95
2024-03-12T22:40:20.449Z,9.63
2024-03-12T22:42:49.670Z,9.98
2024-03-12T22:45:18.583Z,11.30
2024-03-12T22:47:47.832Z,10.80
2024-03-12T22:50:16.401Z,10.45
2024-03-12T22:52:49.030Z,8.88
2024-03-12T22:55:18.014Z,10.63
2024-03-12T22:57:46.889Z,12.13
2024-03-12T23:00:32.127Z,10.63
2024-03-12T23:03:04.736Z,11.20
2024-03-12T23:05:37.929Z,8.75
2024-03-12T23:08:10.309Z,9.40
2024-03-12T23:10:45.835Z,9.98
2024-03-12T23:13:18.857Z,10.88
2024-03-12T23:18:22.427Z,9.07
2024-03-12T23:20:51.403Z,9.80
2024-03-12T23:23:19.359Z,10.13
2024-03-12T23:25:47.393Z,10.43
2024-03-12T23:28:15.645Z,9.65
2024-03-12T23:30:46.637Z,10.23
2024-03-12T23:33:15.609Z,10.65
2024-03-12T23:35:43.938Z,9.43
2024-03-12T23:38:13.233Z,10.50
2024-03-12T23:40:44.327Z,11.25
2024-03-12T23:43:12.670Z,11.00
2024-03-12T23:45:41.446Z,10.77
2024-03-12T23:48:09.597Z,11.93
2024-03-12T23:50:37.825Z,8.88
2024-03-12T23:53:07.344Z,10.05
2024-03-12T23:55:36.275Z,10.98
2024-03-12T23:58:05.985Z,10.38
